createdAt,value
2018-02-20T00:01:28.384Z,-1.20
2018-02-20T00:03:55.939Z,-1.30
2018-02-20T00:06:23.501Z,-1.30
2018-02-20T00:08:51.069Z,-1.30
2018-02-20T00:11:18.603Z,-1.20
2018-02-20T00:13:46.929Z,-1.10
2018-02-20T00:16:14.504Z,-1.10
2018-02-20T00:18:42.058Z,-1.00
2018-02-20T00:21:09.629Z,-1.00
2018-02-20T00:23:37.169Z,-1.10
2018-02-20T00:26:04.725Z,-1.00
2018-02-20T00:28:32.260Z,-1.00
2018-02-20T00:30:59.821Z,-1.10
2018-02-20T00:33:27.362Z,-1.20
2018-02-20T00:35:55.689Z,-1.20
2018-02-20T00:38:23.240Z,-1.20
2018-02-20T00:40:50.777Z,-1.20
2018-02-20T00:43:18.344Z,-1.20
2018-02-20T00:45:45.890Z,-1.20
2018-02-20T00:48:14.221Z,-1.30
2018-02-20T00:50:41.784Z,-1.30
2018-02-20T00:53:09.341Z,-1.30
2018-02-20T00:55:36.895Z,-1.30
2018-02-20T00:58:04.458Z,-1.30
2018-02-20T01:00:31.997Z,-1.20
2018-02-20T01:02:59.550Z,-1.30
2018-02-20T01:05:27.098Z,-1.30
2018-02-20T01:07:54.666Z,-1.30
2018-02-20T01:10:22.213Z,-1.30
2018-02-20T01:12:50.550Z,-1.30
2018-02-20T01:15:18.092Z,-1.30
2018-02-20T01:17:45.683Z,-1.20
2018-02-20T01:20:13.218Z,-1.30
2018-02-20T01:22:40.772Z,-1.30
2018-02-20T01:25:08.332Z,-1.40
2018-02-20T01:27:35.876Z,-1.30
2018-02-20T01:30:03.436Z,-1.30
2018-02-20T01:32:30.989Z,-1.30
2018-02-20T01:34:58.559Z,-1.20
2018-02-20T01:37:26.105Z,-1.20
2018-02-20T01:39:53.657Z,-1.20
2018-02-20T01:42:21.193Z,-1.30
2018-02-20T01:44:49.517Z,-1.30
2018-02-20T01:47:17.067Z,-1.20
2018-02-20T01:49:44.648Z,-1.20
2018-02-20T01:52:12.187Z,-1.30
2018-02-20T01:54:39.738Z,-1.20
2018-02-20T01:57:07.307Z,-1.20
2018-02-20T01:59:34.840Z,-1.30
2018-02-20T02:02:03.168Z,-1.30
2018-02-20T02:04:30.703Z,-1.40
2018-02-20T02:06:58.261Z,-1.30
2018-02-20T02:09:25.808Z,-1.30
2018-02-20T02:11:53.491Z,-1.30
2018-02-20T02:14:21.038Z,-1.30
2018-02-20T02:16:48.596Z,-1.40
2018-02-20T02:19:16.144Z,-1.30
2018-02-20T02:21:43.696Z,-1.30
2018-02-20T02:24:12.039Z,-1.30
2018-02-20T02:26:39.613Z,-1.30
2018-02-20T02:29:07.152Z,-1.30
2018-02-20T02:31:34.689Z,-1.30
2018-02-20T02:34:02.256Z,-1.30
2018-02-20T02:36:29.786Z,-1.30
2018-02-20T02:38:57.344Z,-1.40
2018-02-20T02:41:24.906Z,-1.40
2018-02-20T02:43:52.470Z,-1.40
2018-02-20T02:46:20.014Z,-1.30
2018-02-20T02:48:48.338Z,-1.30
2018-02-20T02:51:15.874Z,-1.30
2018-02-20T02:53:43.429Z,-1.40
2018-02-20T02:56:10.964Z,-1.40
2018-02-20T02:58:39.284Z,-1.50
2018-02-20T03:01:06.820Z,-1.50
2018-02-20T03:03:34.378Z,-1.40
2018-02-20T03:06:01.930Z,-1.40
2018-02-20T03:08:30.254Z,-1.30
2018-02-20T03:10:57.795Z,-1.30
2018-02-20T03:13:25.344Z,-1.30
2018-02-20T03:15:52.888Z,-1.20
2018-02-20T03:18:20.448Z,-1.20
2018-02-20T03:20:48.780Z,-1.40
2018-02-20T03:23:16.330Z,-1.40
2018-02-20T03:25:43.888Z,-1.20
2018-02-20T03:28:11.424Z,-1.30
2018-02-20T03:30:39.001Z,-1.40
2018-02-20T03:33:06.569Z,-1.40
2018-02-20T03:35:34.113Z,-1.40
2018-02-20T03:38:01.672Z,-1.40
2018-02-20T03:40:29.320Z,-1.30
2018-02-20T03:42:56.896Z,-1.40
2018-02-20T03:45:24.444Z,-1.40
2018-02-20T03:47:52.011Z,-1.50
2018-02-20T03:50:19.569Z,-1.40
2018-02-20T03:52:47.128Z,-1.40
2018-02-20T03:55:14.696Z,-1.40
2018-02-20T03:57:42.232Z,-1.40
2018-02-20T04:00:09.804Z,-1.40
2018-02-20T04:02:37.366Z,-1.50
2018-02-20T04:05:04.914Z,-1.50
2018-02-20T04:07:32.472Z,-1.40
2018-02-20T04:10:00.015Z,-1.40
2018-02-20T04:12:28.336Z,-1.40
2018-02-20T04:14:55.874Z,-1.40
2018-02-20T04:17:23.433Z,-1.40
2018-02-20T04:19:51.036Z,-1.50
2018-02-20T04:22:18.624Z,-1.50
2018-02-20T04:24:46.929Z,-1.50
2018-02-20T04:27:14.473Z,-1.50
2018-02-20T04:29:42.805Z,-1.40
2018-02-20T04:32:10.336Z,-1.40
2018-02-20T04:34:37.912Z,-1.50
2018-02-20T04:37:05.468Z,-1.50
2018-02-20T04:39:33.029Z,-1.40
2018-02-20T04:42:00.571Z,-1.50
2018-02-20T04:44:28.126Z,-1.50
2018-02-20T04:46:55.663Z,-1.50
2018-02-20T04:49:23.230Z,-1.40
2018-02-20T04:51:51.530Z,-1.50
2018-02-20T04:54:19.098Z,-1.60
2018-02-20T04:56:46.633Z,-1.50
2018-02-20T04:59:14.192Z,-1.60
2018-02-20T05:01:41.798Z,-1.50
2018-02-20T05:04:09.405Z,-1.40
2018-02-20T05:06:37.706Z,-1.50
2018-02-20T05:09:05.260Z,-1.50
2018-02-20T05:11:32.811Z,-1.50
2018-02-20T05:14:00.368Z,-1.50
2018-02-20T05:16:27.928Z,-1.50
2018-02-20T05:18:55.488Z,-1.50
2018-02-20T05:21:23.045Z,-1.50
2018-02-20T05:23:50.594Z,-1.60
2018-02-20T05:26:18.145Z,-1.60
2018-02-20T05:28:47.308Z,-1.60
2018-02-20T05:31:14.864Z,-1.60
2018-02-20T05:33:42.432Z,-1.50
2018-02-20T05:36:10.019Z,-1.50
2018-02-20T05:38:38.332Z,-1.60
2018-02-20T05:41:05.910Z,-1.60
2018-02-20T05:43:33.468Z,-1.60
2018-02-20T05:46:01.005Z,-1.60
2018-02-20T05:48:28.569Z,-1.60
2018-02-20T05:50:56.121Z,-1.70
2018-02-20T05:53:23.685Z,-1.60
2018-02-20T05:55:51.214Z,-1.60
2018-02-20T05:58:18.793Z,-1.50
2018-02-20T06:00:47.110Z,-1.70
2018-02-20T06:03:14.672Z,-1.70
2018-02-20T06:05:42.259Z,-1.70
2018-02-20T06:08:09.826Z,-1.70
2018-02-20T06:10:37.361Z,-1.70
2018-02-20T06:13:04.926Z,-1.70
2018-02-20T06:15:32.497Z,-1.70
2018-02-20T06:18:00.038Z,-1.70
2018-02-20T06:20:27.616Z,-1.60
2018-02-20T06:22:55.172Z,-1.60
2018-02-20T06:25:22.729Z,-1.60
2018-02-20T06:27:50.571Z,-1.60
2018-02-20T06:30:18.124Z,-1.60
2018-02-20T06:32:46.473Z,-1.60
2018-02-20T06:35:14.778Z,-1.60
2018-02-20T06:37:42.340Z,-1.60
2018-02-20T06:40:09.874Z,-1.50
2018-02-20T06:42:38.265Z,-1.50
2018-02-20T06:45:05.813Z,-1.60
2018-02-20T06:47:33.372Z,-1.50
2018-02-20T06:50:02.428Z,-1.60
2018-02-20T06:52:30.010Z,-1.60
2018-02-20T06:54:58.334Z,-1.50
2018-02-20T06:57:25.907Z,-1.50
2018-02-20T06:59:53.452Z,-1.50
2018-02-20T07:02:21.015Z,-1.40
2018-02-20T07:04:48.553Z,-1.50
2018-02-20T07:07:16.917Z,-1.50
2018-02-20T07:09:45.226Z,-1.40
2018-02-20T07:12:12.781Z,-1.50
2018-02-20T07:14:40.317Z,-1.50
2018-02-20T07:17:08.660Z,-1.30
2018-02-20T07:19:36.216Z,-1.30
2018-02-20T07:22:03.768Z,-1.40
2018-02-20T07:24:31.296Z,-1.40
2018-02-20T07:26:58.849Z,-1.40
2018-02-20T07:29:26.381Z,-1.40
2018-02-20T07:31:53.938Z,-1.30
2018-02-20T07:34:21.481Z,-1.30
2018-02-20T07:36:49.025Z,-1.30
2018-02-20T07:39:16.607Z,-1.30
2018-02-20T07:41:44.155Z,-1.30
2018-02-20T07:44:11.721Z,-1.30
2018-02-20T07:46:39.274Z,-1.30
2018-02-20T07:49:06.841Z,-1.20
2018-02-20T07:51:34.419Z,-1.30
2018-02-20T07:54:01.991Z,-1.40
2018-02-20T07:56:30.304Z,-1.20
2018-02-20T07:58:57.862Z,-1.20
2018-02-20T08:01:25.388Z,-1.20
2018-02-20T08:03:53.695Z,-1.00
2018-02-20T08:06:21.256Z,-1.00
2018-02-20T08:08:48.918Z,-1.10
2018-02-20T08:11:16.464Z,-1.20
2018-02-20T08:13:44.001Z,-1.20
2018-02-20T08:16:12.325Z,-1.20
2018-02-20T08:18:39.891Z,-1.20
2018-02-20T08:21:07.452Z,-1.20
2018-02-20T08:23:34.988Z,-1.20
2018-02-20T08:26:02.547Z,-1.20
2018-02-20T08:28:30.097Z,-1.10
2018-02-20T08:30:57.657Z,-1.10
2018-02-20T08:33:26.058Z,-0.80
2018-02-20T08:35:53.620Z,-0.70
2018-02-20T08:38:21.160Z,-0.70
2018-02-20T08:40:48.685Z,-0.50
2018-02-20T08:43:16.242Z,-0.60
2018-02-20T08:45:43.780Z,-0.70
2018-02-20T08:48:11.380Z,-0.80
2018-02-20T08:50:39.694Z,-0.70
2018-02-20T08:53:07.301Z,-0.80
2018-02-20T08:55:34.869Z,-0.60
2018-02-20T08:58:02.428Z,-0.60
2018-02-20T09:00:29.983Z,-0.60
2018-02-20T09:02:58.448Z,-0.60
2018-02-20T09:05:25.987Z,-0.40
2018-02-20T09:07:53.577Z,-0.40
2018-02-20T09:10:22.619Z,-0.30
2018-02-20T09:12:51.213Z,-0.30
2018-02-20T09:15:18.779Z,-0.30
2018-02-20T09:17:46.340Z,-0.30
2018-02-20T09:20:13.864Z,0.10
2018-02-20T09:22:42.178Z,0.00
2018-02-20T09:25:09.733Z,0.00
2018-02-20T09:27:37.280Z,-0.20
2018-02-20T09:30:04.829Z,-0.20
2018-02-20T09:32:32.385Z,0.10
2018-02-20T09:35:00.713Z,0.20
2018-02-20T09:37:28.250Z,0.20
2018-02-20T09:39:55.824Z,0.00
2018-02-20T09:42:23.369Z,0.10
2018-02-20T09:44:50.922Z,-0.10
2018-02-20T09:47:18.471Z,-0.20
2018-02-20T09:49:46.041Z,0.00
2018-02-20T09:52:13.601Z,0.10
2018-02-20T09:54:41.178Z,0.00
2018-02-20T09:57:08.728Z,-0.10
2018-02-20T09:59:36.294Z,0.00
2018-02-20T10:02:03.848Z,0.20
2018-02-20T10:04:31.385Z,0.30
2018-02-20T10:06:58.941Z,0.50
2018-02-20T10:09:26.480Z,0.30
2018-02-20T10:11:54.089Z,0.40
2018-02-20T10:14:21.648Z,0.50
2018-02-20T10:16:49.964Z,1.00
2018-02-20T10:19:17.517Z,0.70
2018-02-20T10:21:45.080Z,0.60
2018-02-20T10:24:12.625Z,1.00
2018-02-20T10:26:40.213Z,0.90
2018-02-20T10:29:07.750Z,0.90
2018-02-20T10:31:35.325Z,1.20
2018-02-20T10:34:02.857Z,1.40
2018-02-20T10:36:30.442Z,1.10
2018-02-20T10:38:58.744Z,1.00
2018-02-20T10:41:27.077Z,1.10
2018-02-20T10:43:54.648Z,1.10
2018-02-20T10:46:22.189Z,0.90
2018-02-20T10:48:49.749Z,0.80
2018-02-20T10:51:17.308Z,0.90
2018-02-20T10:53:44.849Z,0.90
2018-02-20T10:56:12.414Z,0.80
2018-02-20T10:58:40.021Z,0.70
2018-02-20T11:01:07.593Z,0.90
2018-02-20T11:03:35.897Z,0.90
2018-02-20T11:06:03.477Z,0.90
2018-02-20T11:08:31.014Z,1.10
2018-02-20T11:10:58.561Z,1.10
2018-02-20T11:13:26.900Z,1.00
2018-02-20T11:15:54.440Z,1.00
2018-02-20T11:18:22.000Z,1.00
2018-02-20T11:20:50.308Z,0.90
2018-02-20T11:23:17.867Z,0.80
2018-02-20T11:25:45.433Z,1.00
2018-02-20T11:28:13.197Z,0.80
2018-02-20T11:30:40.764Z,0.80
2018-02-20T11:33:08.332Z,0.90
2018-02-20T11:35:35.889Z,0.80
2018-02-20T11:38:03.434Z,0.70
2018-02-20T11:40:31.061Z,0.80
2018-02-20T11:42:59.373Z,1.10
2018-02-20T11:45:26.937Z,1.10
2018-02-20T11:47:54.485Z,1.30
2018-02-20T11:50:22.051Z,1.30
2018-02-20T11:52:49.627Z,1.20
2018-02-20T11:55:17.169Z,1.20
2018-02-20T11:57:44.744Z,1.20
2018-02-20T12:00:12.297Z,1.10
2018-02-20T12:02:39.903Z,1.20
2018-02-20T12:05:07.448Z,1.30
2018-02-20T12:07:34.968Z,1.40
2018-02-20T12:10:02.538Z,1.30
2018-02-20T12:12:30.076Z,1.20
2018-02-20T12:14:58.392Z,1.30
2018-02-20T12:17:25.925Z,1.30
2018-02-20T12:19:53.488Z,1.30
2018-02-20T12:22:21.044Z,1.40
2018-02-20T12:24:48.614Z,1.50
2018-02-20T12:27:16.247Z,1.50
2018-02-20T12:29:44.546Z,1.20
2018-02-20T12:32:12.124Z,1.30
2018-02-20T12:34:39.671Z,1.50
2018-02-20T12:37:07.205Z,1.50
2018-02-20T12:39:35.534Z,1.70
2018-02-20T12:42:03.105Z,1.70
2018-02-20T12:44:30.658Z,1.60
2018-02-20T12:46:58.217Z,1.40
2018-02-20T12:49:25.789Z,1.50
2018-02-20T12:51:53.916Z,1.40
2018-02-20T12:54:21.458Z,1.60
2018-02-20T12:56:49.015Z,1.50
2018-02-20T12:59:17.425Z,1.30
2018-02-20T13:01:44.985Z,1.30
2018-02-20T13:04:12.542Z,1.30
2018-02-20T13:06:40.102Z,1.30
2018-02-20T13:09:07.658Z,1.30
2018-02-20T13:11:35.231Z,1.40
2018-02-20T13:14:02.784Z,1.60
2018-02-20T13:16:30.344Z,1.20
2018-02-20T13:18:57.887Z,1.20
2018-02-20T13:21:25.441Z,1.30
2018-02-20T13:23:53.748Z,1.10
2018-02-20T13:26:21.353Z,1.10
2018-02-20T13:28:48.916Z,1.40
2018-02-20T13:31:16.489Z,1.40
2018-02-20T13:33:44.801Z,1.30
2018-02-20T13:36:13.013Z,1.20
2018-02-20T13:38:40.564Z,1.30
2018-02-20T13:41:08.160Z,1.30
2018-02-20T13:43:36.464Z,1.10
2018-02-20T13:46:04.026Z,1.10
2018-02-20T13:48:31.565Z,1.00
2018-02-20T13:50:59.909Z,0.80
2018-02-20T13:53:27.441Z,0.80
2018-02-20T13:55:55.012Z,0.80
2018-02-20T13:58:22.556Z,0.90
2018-02-20T14:00:50.106Z,0.80
2018-02-20T14:03:17.661Z,0.80
2018-02-20T14:05:45.198Z,0.90
2018-02-20T14:08:13.516Z,1.10
2018-02-20T14:10:41.061Z,1.10
2018-02-20T14:13:08.621Z,1.10
2018-02-20T14:15:36.156Z,0.90
2018-02-20T14:18:04.474Z,0.90
2018-02-20T14:20:32.028Z,0.90
2018-02-20T14:22:59.601Z,1.00
2018-02-20T14:25:27.141Z,1.10
2018-02-20T14:27:55.480Z,1.00
2018-02-20T14:30:23.036Z,1.00
2018-02-20T14:32:51.343Z,1.10
2018-02-20T14:35:18.914Z,1.10
2018-02-20T14:37:47.333Z,1.20
2018-02-20T14:40:14.901Z,1.20
2018-02-20T14:42:42.447Z,1.20
2018-02-20T14:45:10.012Z,1.00
2018-02-20T14:47:37.553Z,1.10
2018-02-20T14:50:05.097Z,0.90
2018-02-20T14:52:32.628Z,0.80
2018-02-20T14:55:00.956Z,0.80
2018-02-20T14:57:28.503Z,0.80
2018-02-20T14:59:56.035Z,0.70
2018-02-20T15:02:23.576Z,0.60
2018-02-20T15:04:51.893Z,0.70
2018-02-20T15:07:19.437Z,0.70
2018-02-20T15:09:46.981Z,0.60
2018-02-20T15:12:14.550Z,0.60
2018-02-20T15:14:42.135Z,0.60
2018-02-20T15:17:09.668Z,0.60
2018-02-20T15:19:37.214Z,0.50
2018-02-20T15:22:05.569Z,0.60
2018-02-20T15:24:33.109Z,0.60
2018-02-20T15:27:00.685Z,0.50
2018-02-20T15:29:28.210Z,0.60
2018-02-20T15:31:55.756Z,0.50
2018-02-20T15:34:23.282Z,0.60
2018-02-20T15:36:51.638Z,0.50
2018-02-20T15:39:19.181Z,0.50
2018-02-20T15:41:46.733Z,0.50
2018-02-20T15:44:14.301Z,0.40
2018-02-20T15:46:41.833Z,0.30
2018-02-20T15:49:10.036Z,0.20
2018-02-20T15:51:37.580Z,0.20
2018-02-20T15:54:05.910Z,0.00
2018-02-20T15:56:33.461Z,0.00
2018-02-20T15:59:01.024Z,0.10
2018-02-20T16:01:28.586Z,0.00
2018-02-20T16:03:56.133Z,0.00
2018-02-20T16:06:23.681Z,0.10
2018-02-20T16:08:51.245Z,0.00
2018-02-20T16:11:18.821Z,-0.10
2018-02-20T16:13:46.583Z,0.00
2018-02-20T16:16:14.931Z,-0.10
2018-02-20T16:18:42.497Z,-0.20
2018-02-20T16:21:10.097Z,-0.20
2018-02-20T16:23:37.678Z,-0.20
2018-02-20T16:26:05.987Z,-0.20
2018-02-20T16:28:33.597Z,-0.20
2018-02-20T16:31:01.155Z,-0.30
2018-02-20T16:33:28.693Z,-0.40
2018-02-20T16:35:56.317Z,-0.30
2018-02-20T16:38:23.878Z,-0.30
2018-02-20T16:40:51.433Z,-0.30
2018-02-20T16:43:19.002Z,-0.30
2018-02-20T16:45:46.676Z,-0.30
2018-02-20T16:48:14.235Z,-0.40
2018-02-20T16:50:41.793Z,-0.50
2018-02-20T16:53:09.339Z,-0.50
2018-02-20T16:55:36.908Z,-0.60
2018-02-20T16:58:04.468Z,-0.60
2018-02-20T17:00:32.087Z,-0.70
2018-02-20T17:03:00.406Z,-0.70
2018-02-20T17:05:27.972Z,-0.70
2018-02-20T17:07:55.536Z,-0.70
2018-02-20T17:10:23.110Z,-0.70
2018-02-20T17:12:50.667Z,-0.50
2018-02-20T17:15:18.209Z,-0.60
2018-02-20T17:17:45.772Z,-0.60
2018-02-20T17:20:13.317Z,-0.70
2018-02-20T17:22:40.923Z,-0.80
2018-02-20T17:25:08.510Z,-0.80
2018-02-20T17:27:36.880Z,-0.80
2018-02-20T17:30:04.431Z,-0.80
2018-02-20T17:32:31.997Z,-0.60
2018-02-20T17:34:59.532Z,-0.60
2018-02-20T17:37:27.099Z,-0.70
2018-02-20T17:39:54.655Z,-0.70
2018-02-20T17:42:22.189Z,-0.70
2018-02-20T17:44:49.761Z,-0.70
2018-02-20T17:47:17.314Z,-0.70
2018-02-20T17:49:44.888Z,-0.70
2018-02-20T17:52:12.421Z,-0.80
2018-02-20T17:54:40.012Z,-0.90
2018-02-20T17:57:07.556Z,-0.80
2018-02-20T17:59:35.132Z,-0.70
2018-02-20T18:02:02.681Z,-0.80
2018-02-20T18:04:30.215Z,-0.80
2018-02-20T18:06:57.776Z,-0.90
2018-02-20T18:09:25.349Z,-0.80
2018-02-20T18:11:52.917Z,-0.80
2018-02-20T18:14:20.454Z,-0.90
2018-02-20T18:16:48.016Z,-1.00
2018-02-20T18:19:15.602Z,-1.00
2018-02-20T18:21:43.168Z,-1.00
2018-02-20T18:24:10.738Z,-1.10
2018-02-20T18:26:38.292Z,-1.20
2018-02-20T18:29:05.852Z,-1.10
2018-02-20T18:31:33.406Z,-1.00
2018-02-20T18:34:00.981Z,-1.00
2018-02-20T18:36:28.541Z,-1.00
2018-02-20T18:38:56.109Z,-0.90
2018-02-20T18:41:23.707Z,-1.00
2018-02-20T18:43:52.022Z,-1.00
2018-02-20T18:46:19.596Z,-1.00
2018-02-20T18:48:47.231Z,-1.00
2018-02-20T18:51:14.828Z,-1.00
2018-02-20T18:53:42.376Z,-1.00
2018-02-20T18:56:09.961Z,-1.10
2018-02-20T18:58:37.505Z,-1.10
2018-02-20T19:01:05.045Z,-1.10
2018-02-20T19:03:32.604Z,-1.20
2018-02-20T19:06:00.152Z,-1.20
2018-02-20T19:08:27.713Z,-1.10
2018-02-20T19:10:55.260Z,-1.20
2018-02-20T19:13:22.832Z,-1.30
2018-02-20T19:15:50.377Z,-1.30
2018-02-20T19:18:17.922Z,-1.30
2018-02-20T19:20:45.478Z,-1.30
2018-02-20T19:23:13.805Z,-1.30
2018-02-20T19:25:41.401Z,-1.30
2018-02-20T19:28:09.746Z,-1.40
2018-02-20T19:30:37.290Z,-1.40
2018-02-20T19:33:04.884Z,-1.50
2018-02-20T19:35:32.438Z,-1.50
2018-02-20T19:37:59.996Z,-1.50
2018-02-20T19:40:27.538Z,-1.40
2018-02-20T19:42:55.273Z,-1.40
2018-02-20T19:45:23.442Z,-1.40
2018-02-20T19:47:51.009Z,-1.50
2018-02-20T19:50:18.591Z,-1.50
2018-02-20T19:52:46.170Z,-1.50
2018-02-20T19:55:13.734Z,-1.60
2018-02-20T19:57:41.300Z,-1.60
2018-02-20T20:00:08.894Z,-1.60
2018-02-20T20:02:36.431Z,-1.60
2018-02-20T20:05:04.328Z,-1.60
2018-02-20T20:07:31.884Z,-1.50
2018-02-20T20:09:59.460Z,-1.60
2018-02-20T20:12:26.996Z,-1.60
2018-02-20T20:14:54.557Z,-1.70
2018-02-20T20:17:22.132Z,-1.70
2018-02-20T20:19:49.721Z,-1.70
2018-02-20T20:22:18.480Z,-1.70
2018-02-20T20:24:46.064Z,-1.70
2018-02-20T20:27:18.469Z,-1.70
2018-02-20T20:29:46.039Z,-1.70
2018-02-20T20:32:13.601Z,-1.70
2018-02-20T20:34:41.927Z,-1.80
2018-02-20T20:37:09.490Z,-1.80
2018-02-20T20:39:37.028Z,-1.80
2018-02-20T20:42:04.624Z,-1.90
2018-02-20T20:44:32.165Z,-1.90
2018-02-20T20:46:59.777Z,-1.90
2018-02-20T20:49:28.078Z,-2.00
2018-02-20T20:51:55.860Z,-2.00
2018-02-20T20:54:23.528Z,-2.00
2018-02-20T20:56:51.588Z,-2.00
2018-02-20T20:59:19.880Z,-2.10
2018-02-20T21:01:47.934Z,-2.10
2018-02-20T21:04:16.537Z,-2.10
2018-02-20T21:06:44.920Z,-2.10
2018-02-20T21:09:12.895Z,-2.10
2018-02-20T21:11:40.935Z,-2.10
2018-02-20T21:14:08.914Z,-2.10
2018-02-20T21:16:36.974Z,-2.00
2018-02-20T21:19:04.933Z,-2.00
2018-02-20T21:21:32.906Z,-1.90
2018-02-20T21:24:00.957Z,-2.00
2018-02-20T21:26:29.689Z,-1.90
2018-02-20T21:28:57.767Z,-2.00
2018-02-20T21:31:26.073Z,-2.00
2018-02-20T21:33:55.027Z,-1.90
2018-02-20T21:36:22.560Z,-2.00
2018-02-20T21:38:50.130Z,-1.90
2018-02-20T21:41:17.684Z,-1.90
2018-02-20T21:43:45.232Z,-1.90
2018-02-20T21:46:13.588Z,-1.80
2018-02-20T21:48:41.136Z,-1.80
2018-02-20T21:51:08.694Z,-1.80
2018-02-20T21:53:36.263Z,-2.00
2018-02-20T21:56:03.873Z,-1.90
2018-02-20T21:58:31.446Z,-1.90
2018-02-20T22:00:58.993Z,-2.00
2018-02-20T22:03:26.572Z,-2.00
2018-02-20T22:05:54.161Z,-2.10
2018-02-20T22:08:21.717Z,-2.00
2018-02-20T22:10:49.281Z,-2.00
2018-02-20T22:13:16.844Z,-2.10
2018-02-20T22:15:44.387Z,-2.10
2018-02-20T22:18:11.985Z,-2.10
2018-02-20T22:20:40.293Z,-1.90
2018-02-20T22:23:07.865Z,-2.00
2018-02-20T22:25:35.404Z,-2.00
2018-02-20T22:28:02.965Z,-2.00
2018-02-20T22:30:30.496Z,-2.00
2018-02-20T22:32:58.035Z,-2.00
2018-02-20T22:35:25.596Z,-1.90
2018-02-20T22:37:53.141Z,-1.90
2018-02-20T22:40:20.719Z,-1.90
2018-02-20T22:42:48.292Z,-1.90
2018-02-20T22:45:16.608Z,-1.80
2018-02-20T22:47:44.182Z,-1.90
2018-02-20T22:50:11.761Z,-1.80
2018-02-20T22:52:39.293Z,-1.70
2018-02-20T22:55:06.849Z,-1.80
2018-02-20T22:57:34.412Z,-1.90
2018-02-20T23:00:01.978Z,-1.90
2018-02-20T23:02:29.584Z,-1.80
2018-02-20T23:04:57.185Z,-1.80
2018-02-20T23:07:24.730Z,-1.80
2018-02-20T23:09:53.055Z,-1.80
2018-02-20T23:12:20.608Z,-1.80
2018-02-20T23:14:48.164Z,-1.80
2018-02-20T23:17:15.723Z,-1.90
2018-02-20T23:19:43.268Z,-1.90
2018-02-20T23:22:10.833Z,-1.90
2018-02-20T23:24:38.380Z,-1.90
2018-02-20T23:27:05.950Z,-1.90
2018-02-20T23:29:33.489Z,-1.80
2018-02-20T23:32:01.813Z,-1.90
2018-02-20T23:34:30.213Z,-1.90
2018-02-20T23:36:57.763Z,-1.90
2018-02-20T23:39:25.317Z,-1.90
2018-02-20T23:41:52.872Z,-1.90
2018-02-20T23:44:20.406Z,-1.80
2018-02-20T23:46:47.940Z,-1.90
2018-02-20T23:49:16.271Z,-1.90
2018-02-20T23:51:43.811Z,-1.90
2018-02-20T23:54:11.374Z,-1.90
2018-02-20T23:56:38.965Z,-1.90
2018-02-20T23:59:06.524Z,-1.80
